AST,Max TemperatureF,Mean TemperatureF,Min TemperatureF,Max Dew PointF,MeanDew PointF,Min DewpointF,Max Humidity, Mean Humidity, Min Humidity, Max Sea Level PressureIn, Mean Sea Level PressureIn, Min Sea Level PressureIn, Max VisibilityMiles, Mean VisibilityMiles, Min VisibilityMiles, Max Wind SpeedMPH, Mean Wind SpeedMPH, Max Gust SpeedMPH,PrecipitationIn, CloudCover, Events, WindDirDegrees
2012-10-1,90,84,78,77,76,74,90,77,63,30.02,29.98,29.95,10,10,4,13,6,17,0.05,2,Rain,92
2012-10-2,90,84,78,79,75,73,89,76,59,30.06,30.01,29.97,10,9,1,20,8,31,0.25,4,Rain,80
2012-10-3,90,82,75,75,73,71,87,71,59,30.08,30.02,29.99,10,9,1,15,11,28,0.03,3,Rain,65
2012-10-4,89,82,75,76,74,73,91,75,63,30.02,29.96,29.92,10,10,7,13,7,51,0.03,3,Rain,65
2012-10-5,88,82,75,74,73,71,91,75,59,29.93,29.87,29.81,10,10,5,13,7,,0.03,3,Rain,32
2012-10-6,88,80,73,74,72,70,96,76,57,29.87,29.83,29.78,10,10,10,14,4,,0.00,2,,213
2012-10-7,91,83,75,76,74,72,94,76,57,29.98,29.91,29.84,10,10,8,14,5,21,0.00,0,,177
2012-10-8,89,84,78,78,76,73,90,79,63,30.03,29.98,29.94,10,10,8,9,5,,0.00,3,,93
2012-10-9,88,80,73,78,75,73,97,82,66,30.02,29.98,29.93,10,8,0,14,4,21,0.82,4,Fog-Rain,126
2012-10-10,87,81,75,77,75,72,94,82,65,29.99,29.95,29.89,10,9,2,13,6,20,0.18,4,Rain,73
2012-10-11,90,86,81,77,75,72,82,75,61,29.97,29.92,29.88,10,10,8,15,7,24,0.00,2,,85
2012-10-12,89,83,77,76,74,72,94,75,63,29.93,29.87,29.84,10,9,7,13,9,18,0.03,3,,67
2012-10-13,88,83,78,79,76,74,94,83,70,29.85,29.79,29.73,10,10,3,15,8,23,0.14,4,Rain,24
2012-10-14,88,82,77,78,76,74,96,86,65,29.76,29.72,29.68,10,9,2,13,4,20,0.17,5,Rain,267
2012-10-15,90,82,75,77,75,72,91,79,63,29.78,29.72,29.68,10,10,10,22,6,29,0.00,1,,217
2012-10-16,90,84,78,78,76,72,96,81,65,29.87,29.80,29.73,10,9,1,21,9,25,0.15,3,Rain,222
2012-10-17,89,83,77,77,76,75,94,80,63,29.95,29.90,29.83,10,10,10,15,5,,0.00,3,,204
2012-10-18,87,81,75,79,75,74,97,82,67,29.95,29.91,29.86,10,10,6,14,5,,0.03,2,Rain,102
2012-10-19,84,80,75,77,74,72,100,90,69,29.95,29.91,29.86,10,7,1,20,5,29,0.44,5,Rain,137
2012-10-20,88,84,79,75,74,72,82,74,63,29.95,29.90,29.86,10,10,7,14,7,21,0.01,3,Rain,108
2012-10-21,86,80,73,76,74,71,97,82,70,29.93,29.87,29.83,10,8,1,16,6,26,0.69,4,Rain,81
2012-10-22,87,81,75,76,74,73,96,83,67,29.89,29.85,29.81,10,9,2,9,4,,0.23,2,Rain,91
2012-10-23,87,81,75,75,73,72,100,79,63,29.89,29.84,29.79,10,10,10,12,4,,0.02,3,,105
2012-10-24,88,84,80,75,73,71,79,73,62,29.89,29.86,29.82,10,10,10,14,8,,0.00,3,,135
2012-10-25,88,84,80,77,75,73,89,75,65,29.89,29.86,29.82,10,10,4,15,10,23,0.02,3,Rain,147
2012-10-26,87,84,80,79,78,77,94,87,77,29.88,29.84,29.81,10,9,1,16,9,25,0.36,5,Rain,171
2012-10-27,89,86,82,79,77,75,89,79,70,29.85,29.80,29.78,10,10,9,21,13,29,0.00,3,Rain,203
2012-10-28,89,84,77,79,77,75,94,81,67,29.86,29.82,29.78,10,10,5,20,9,25,0.00,2,Rain,217
2012-10-29,89,82,75,78,76,74,96,84,67,29.92,29.87,29.83,10,9,6,17,4,22,0.00,2,,212
2012-10-30,89,83,77,79,76,75,94,83,63,29.99,29.94,29.89,10,9,7,12,3,20,0.00,1,,198
2012-10-31,89,82,75,77,75,74,97,82,66,30.01,29.96,29.91,10,9,4,7,2,,0.00,2,,76